Time;durP1;ratioP1;P1;durP2;ratioP2;P2;SDS_P1;SDS_P2;PMS_P1;PMS_P2;Temp;Humidity;BMP_temperature;BMP_pressure;BME280_temperature;BME280_humidity;BME280_pressure;Samples;Min_cycle;Max_cycle;Signal;HPM_P1;HPM_P2
2021/12/18 00:00:19;;;;;;;54.88;2.47;;;6.50;99.90;;;;;;5098072;28;20410;-84
2021/12/18 00:02:45;;;;;;;12.38;1.73;;;7.20;99.90;;;;;;5115776;28;20047;-82
2021/12/18 00:05:11;;;;;;;27.75;1.65;;;7.00;99.90;;;;;;5117613;27;20047;-84
2021/12/18 00:07:39;;;;;;;7.18;1.20;;;7.10;99.90;;;;;;5118194;27;20506;-84
2021/12/18 00:10:06;;;;;;;11.25;1.38;;;6.90;99.90;;;;;;5100939;27;20103;-84
2021/12/18 00:12:47;;;;;;;13.02;1.42;;;6.40;99.90;;;;;;5097694;28;20051;-86
2021/12/18 00:15:15;;;;;;;14.77;1.63;;;6.80;99.90;;;;;;5116044;28;20123;-86
2021/12/18 00:17:41;;;;;;;5.80;1.45;;;6.10;99.90;;;;;;5109021;27;20043;-82
2021/12/18 00:20:07;;;;;;;3.10;1.20;;;6.50;99.90;;;;;;5100675;27;20047;-84
2021/12/18 00:22:44;;;;;;;9.73;1.70;;;6.40;99.90;;;;;;5136093;27;20386;-84
2021/12/18 00:25:11;;;;;;;8.20;1.75;;;7.10;99.90;;;;;;5136399;27;20100;-83
2021/12/18 00:27:40;;;;;;;8.25;1.48;;;6.40;99.90;;;;;;5117728;27;20078;-83
2021/12/18 00:30:09;;;;;;;9.45;1.58;;;6.60;99.90;;;;;;5136102;27;20049;-86
2021/12/18 00:32:35;;;;;;;8.00;1.77;;;6.40;99.90;;;;;;5136135;27;20039;-83
2021/12/18 00:35:08;;;;;;;3.85;1.45;;;6.40;99.90;;;;;;5135431;27;20031;-84
2021/12/18 00:37:40;;;;;;;7.13;1.45;;;6.10;99.90;;;;;;5135705;27;20042;-85
2021/12/18 00:40:10;;;;;;;7.07;1.60;;;6.50;99.90;;;;;;5136079;27;20043;-83
2021/12/18 00:42:45;;;;;;;8.50;1.67;;;6.40;99.90;;;;;;5135796;27;20082;-82
2021/12/18 00:45:24;;;;;;;5.43;1.65;;;6.80;99.90;;;;;;5101226;27;20509;-82
2021/12/18 00:47:50;;;;;;;6.50;1.55;;;6.40;99.90;;;;;;5116869;27;20047;-83
2021/12/18 00:50:20;;;;;;;6.43;1.67;;;6.40;99.90;;;;;;5117074;27;20039;-83
2021/12/18 00:52:55;;;;;;;6.43;1.65;;;6.80;99.90;;;;;;5135725;27;20093;-85
2021/12/18 00:55:22;;;;;;;6.60;1.70;;;6.40;99.90;;;;;;5107559;22;20047;-84
2021/12/18 00:57:49;;;;;;;8.68;1.92;;;6.40;99.90;;;;;;5076602;28;20446;-85
2021/12/18 01:00:21;;;;;;;7.63;1.73;;;6.40;99.90;;;;;;5076292;28;20072;-85
2021/12/18 01:02:49;;;;;;;5.90;1.50;;;6.60;99.90;;;;;;5094812;28;20087;-86
2021/12/18 01:05:15;;;;;;;6.68;1.30;;;6.40;99.90;;;;;;5094504;28;20039;-86
2021/12/18 01:07:55;;;;;;;6.35;1.52;;;6.90;99.90;;;;;;5059213;28;20383;-87
2021/12/18 01:10:43;;;;;;;6.70;1.45;;;6.30;99.90;;;;;;5059678;28;20058;-85
2021/12/18 01:13:14;;;;;;;7.45;1.55;;;6.30;99.90;;;;;;5059419;28;20083;-86
2021/12/18 01:15:46;;;;;;;7.50;1.73;;;6.60;99.90;;;;;;5059706;28;20105;-83
2021/12/18 01:23:44;;;;;;;7.90;1.92;;;6.30;99.90;;;;;;5075851;28;20063;-87
2021/12/18 01:26:13;;;;;;;5.93;1.98;;;6.30;99.90;;;;;;5059853;28;20494;-86
2021/12/18 01:28:54;;;;;;;6.55;1.35;;;6.50;99.90;;;;;;5075837;28;20433;-84
2021/12/18 01:31:20;;;;;;;7.63;1.73;;;5.90;99.90;;;;;;5075729;28;20052;-86
2021/12/18 01:33:45;;;;;;;9.13;1.98;;;6.60;99.90;;;;;;5094069;28;20050;-84
2021/12/18 01:36:20;;;;;;;19.45;2.20;;;6.20;99.90;;;;;;5093586;28;20157;-83
2021/12/18 01:38:45;;;;;;;12.88;1.98;;;6.50;99.90;;;;;;5093709;28;20506;-86
2021/12/18 01:41:11;;;;;;;11.18;2.33;;;6.30;99.90;;;;;;5075759;28;20036;-86
2021/12/18 01:46:43;;;;;;;9.25;1.80;;;6.20;99.90;;;;;;5093583;28;20129;-86
2021/12/18 01:52:32;;;;;;;9.95;2.05;;;6.20;99.90;;;;;;5093374;28;20406;-85
2021/12/18 01:54:58;;;;;;;6.93;1.40;;;6.20;99.90;;;;;;5092044;28;20086;-86
2021/12/18 01:57:25;;;;;;;8.80;2.00;;;6.80;99.90;;;;;;5059373;28;20712;-86
2021/12/18 01:59:57;;;;;;;5.82;1.73;;;6.80;99.90;;;;;;5075892;28;20437;-86
2021/12/18 02:02:24;;;;;;;6.07;1.85;;;7.00;99.90;;;;;;5093398;28;20093;-86
2021/12/18 02:04:50;;;;;;;4.68;1.52;;;6.20;99.90;;;;;;5075458;28;20393;-84
2021/12/18 02:07:16;;;;;;;6.25;1.45;;;6.20;99.90;;;;;;5075154;28;20043;-84
2021/12/18 02:10:08;;;;;;;8.23;1.65;;;6.60;99.90;;;;;;5074620;28;20060;-85
2021/12/18 02:13:01;;;;;;;10.50;1.58;;;7.00;99.90;;;;;;5075235;28;20419;-84
2021/12/18 02:21:30;;;;;;;2.80;1.10;;;6.20;99.90;;;;;;5033763;28;20049;-84
2021/12/18 02:23:59;;;;;;;9.82;1.30;;;6.40;99.90;;;;;;5033415;28;20090;-85
2021/12/18 02:26:25;;;;;;;5.07;1.30;;;6.20;99.90;;;;;;5015762;28;20045;-83
2021/12/18 02:29:03;;;;;;;7.32;1.17;;;6.50;99.90;;;;;;5014076;28;20057;-85
2021/12/18 02:31:31;;;;;;;3.95;1.45;;;6.40;99.90;;;;;;4997924;28;20049;-83
2021/12/18 02:34:14;;;;;;;4.70;1.65;;;6.20;99.90;;;;;;5030284;28;20068;-86
2021/12/18 02:36:46;;;;;;;12.82;1.95;;;6.40;99.90;;;;;;5030446;28;20057;-83
2021/12/18 02:42:12;;;;;;;5.18;2.08;;;6.90;99.90;;;;;;5050178;28;20453;-82
2021/12/18 02:44:41;;;;;;;14.27;1.85;;;6.70;99.90;;;;;;5032473;28;20483;-83
2021/12/18 02:47:09;;;;;;;11.13;2.30;;;6.20;99.90;;;;;;5033178;28;20061;-85
2021/12/18 02:50:04;;;;;;;10.55;2.38;;;6.20;99.90;;;;;;5017193;28;20678;-83
2021/12/18 02:52:41;;;;;;;8.23;2.30;;;6.20;99.90;;;;;;5033105;28;20057;-84
2021/12/18 02:55:07;;;;;;;10.63;2.45;;;6.20;99.90;;;;;;5052792;28;20084;-82
2021/12/18 02:57:33;;;;;;;15.93;2.88;;;6.30;99.90;;;;;;5050737;28;20080;-84
2021/12/18 03:00:05;;;;;;;14.43;2.85;;;6.90;99.90;;;;;;5072277;28;20432;-88
2021/12/18 03:02:42;;;;;;;8.73;2.53;;;6.20;99.90;;;;;;5054077;28;20040;-86
2021/12/18 03:05:11;;;;;;;7.60;2.15;;;6.20;99.90;;;;;;5038489;28;20048;-85
2021/12/18 03:07:37;;;;;;;5.22;1.83;;;6.30;99.90;;;;;;5054469;28;20086;-82
2021/12/18 03:23:57;;;;;;;4.72;1.00;;;6.80;99.90;;;;;;5071991;28;20049;-83
2021/12/18 03:26:23;;;;;;;5.45;1.52;;;6.70;99.90;;;;;;5037160;28;20049;-85
2021/12/18 03:28:49;;;;;;;5.78;1.25;;;6.50;99.90;;;;;;5053656;28;20048;-83
2021/12/18 03:31:15;;;;;;;4.15;1.10;;;6.20;99.90;;;;;;5058142;28;20059;-87
2021/12/18 03:33:40;;;;;;;4.47;0.90;;;6.20;99.90;;;;;;5057936;28;20098;-85
2021/12/18 03:36:17;;;;;;;;;;;;;;;;;;;;;
2021/12/18 03:38:52;;;;;;;2.92;1.00;;;6.20;99.90;;;;;;5057768;28;20084;-84
2021/12/18 03:41:23;;;;;;;2.90;0.90;;;5.80;99.90;;;;;;5075318;28;20161;-86
2021/12/18 03:44:00;;;;;;;3.80;0.77;;;6.10;99.90;;;;;;5075467;28;20564;-84
2021/12/18 03:46:26;;;;;;;3.90;0.80;;;6.40;99.90;;;;;;5055734;28;20052;-84
2021/12/18 03:49:01;;;;;;;3.47;0.90;;;6.10;99.90;;;;;;5057705;28;20163;-88
2021/12/18 03:51:33;;;;;;;10.07;0.80;;;6.80;99.90;;;;;;5075540;28;20403;-87
2021/12/18 03:54:02;;;;;;;3.58;0.98;;;6.00;99.90;;;;;;5062027;28;20103;-87
2021/12/18 03:56:34;;;;;;;3.42;1.10;;;6.00;99.90;;;;;;5095739;28;20048;-83
2021/12/18 03:59:03;;;;;;;3.63;1.00;;;6.50;99.90;;;;;;5077258;28;20394;-87
2021/12/18 04:01:29;;;;;;;4.78;1.02;;;6.30;99.90;;;;;;5089904;22;20507;-87
2021/12/18 04:03:54;;;;;;;5.28;1.40;;;6.60;99.90;;;;;;5080894;28;20059;-85
2021/12/18 04:06:23;;;;;;;4.68;1.40;;;6.00;99.90;;;;;;5081165;28;20040;-84
2021/12/18 04:08:49;;;;;;;4.32;1.27;;;6.00;99.90;;;;;;5115950;28;20043;-87
2021/12/18 04:11:14;;;;;;;5.63;1.23;;;6.00;99.90;;;;;;5115555;28;20452;-87
2021/12/18 04:13:49;;;;;;;4.13;1.13;;;6.00;99.90;;;;;;5115464;28;20035;-87
2021/12/18 04:16:28;;;;;;;7.90;1.63;;;6.60;99.90;;;;;;5115826;28;20176;-85
2021/12/18 04:18:53;;;;;;;8.40;1.70;;;6.30;99.90;;;;;;5080650;28;20054;-86
2021/12/18 04:21:25;;;;;;;4.70;1.50;;;6.50;99.90;;;;;;5080414;28;20044;-86
2021/12/18 04:23:51;;;;;;;6.35;1.23;;;6.70;99.90;;;;;;5097113;28;20040;-86
2021/12/18 04:26:20;;;;;;;13.50;1.55;;;6.40;99.90;;;;;;5115323;28;20393;-86
2021/12/18 04:29:02;;;;;;;5.28;1.20;;;6.50;99.90;;;;;;5115502;28;20394;-86
2021/12/18 04:31:28;;;;;;;3.38;1.10;;;6.00;99.90;;;;;;5096945;28;20047;-86
2021/12/18 04:33:54;;;;;;;2.90;1.02;;;6.10;99.90;;;;;;5115682;28;20051;-86
2021/12/18 04:36:21;;;;;;;3.47;1.08;;;5.90;99.90;;;;;;5097458;28;20043;-85
2021/12/18 04:38:47;;;;;;;4.35;1.15;;;6.70;99.90;;;;;;5096954;28;20058;-85
2021/12/18 04:41:20;;;;;;;4.63;1.17;;;5.70;99.90;;;;;;5099064;22;20056;-86
2021/12/18 04:43:50;;;;;;;2.45;0.77;;;5.90;99.90;;;;;;5093783;28;20048;-85
2021/12/18 04:46:16;;;;;;;4.13;1.30;;;5.80;99.90;;;;;;5092667;28;20054;-85
2021/12/18 04:48:48;;;;;;;4.38;1.10;;;6.60;99.90;;;;;;5094847;28;20040;-85
2021/12/18 04:51:17;;;;;;;5.70;1.50;;;6.40;99.90;;;;;;5093537;28;20524;-86
2021/12/18 04:53:46;;;;;;;9.95;1.55;;;6.50;99.90;;;;;;5093171;28;20046;-85
2021/12/18 04:56:18;;;;;;;6.82;1.63;;;5.80;99.90;;;;;;5076479;28;20122;-85
2021/12/18 04:58:44;;;;;;;6.30;1.65;;;6.70;99.90;;;;;;5093411;28;20087;-85
2021/12/18 05:01:10;;;;;;;6.95;1.73;;;6.60;99.90;;;;;;5074714;28;20104;-85
2021/12/18 05:03:40;;;;;;;5.80;1.88;;;6.60;99.90;;;;;;5076301;28;20123;-85
2021/12/18 05:06:12;;;;;;;11.27;2.10;;;6.20;99.90;;;;;;5094355;28;20054;-85
2021/12/18 05:08:45;;;;;;;11.35;2.80;;;6.80;99.90;;;;;;5094682;28;20115;-84
2021/12/18 05:11:11;;;;;;;12.10;2.53;;;6.40;99.90;;;;;;5116429;22;20081;-84
2021/12/18 05:13:43;;;;;;;12.93;3.00;;;7.00;99.90;;;;;;5137792;27;20469;-86
2021/12/18 05:16:09;;;;;;;10.07;2.90;;;6.80;99.90;;;;;;5120236;27;20385;-85
2021/12/18 05:18:38;;;;;;;13.75;3.15;;;6.90;99.90;;;;;;5116815;27;20051;-85
2021/12/18 05:21:03;;;;;;;11.05;3.40;;;6.80;99.90;;;;;;5099889;27;20393;-86
2021/12/18 05:23:29;;;;;;;15.75;3.90;;;6.30;99.90;;;;;;5116965;27;20047;-85
2021/12/18 05:26:07;;;;;;;11.32;3.38;;;6.00;99.90;;;;;;5116747;27;20509;-86
2021/12/18 05:28:33;;;;;;;10.23;3.38;;;6.80;99.90;;;;;;5135775;27;20099;-83
2021/12/18 05:30:58;;;;;;;12.30;3.47;;;6.40;99.90;;;;;;5136137;27;20082;-83
2021/12/18 05:33:24;;;;;;;13.57;4.25;;;6.90;99.90;;;;;;5116410;27;20108;-83
2021/12/18 05:36:13;;;;;;;17.33;4.60;;;7.00;99.90;;;;;;5136617;27;20043;-83
2021/12/18 05:38:50;;;;;;;14.77;4.13;;;6.40;99.90;;;;;;5092587;28;20509;-85
2021/12/18 05:41:16;;;;;;;15.45;4.72;;;6.40;99.90;;;;;;5091484;28;20101;-85
2021/12/18 05:43:54;;;;;;;20.50;5.70;;;6.40;99.90;;;;;;5091549;28;20052;-85
2021/12/18 05:46:51;;;;;;;20.45;6.35;;;6.70;99.90;;;;;;5091302;28;20132;-85
2021/12/18 05:49:18;;;;;;;27.35;7.07;;;6.50;99.90;;;;;;5090960;28;20510;-84
2021/12/18 05:51:56;;;;;;;33.92;7.07;;;6.50;99.90;;;;;;5090984;28;20040;-85
2021/12/18 05:54:22;;;;;;;27.30;7.00;;;6.60;99.90;;;;;;5074181;28;20052;-85
2021/12/18 05:56:48;;;;;;;24.20;6.82;;;7.40;99.90;;;;;;5074517;28;20079;-85
2021/12/18 05:59:14;;;;;;;17.65;6.35;;;7.10;99.90;;;;;;5091103;28;20093;-85
2021/12/18 06:01:39;;;;;;;26.63;7.35;;;7.10;99.90;;;;;;5091363;28;20135;-85
2021/12/18 06:04:25;;;;;;;28.17;7.07;;;6.60;99.90;;;;;;5090744;28;20056;-85
2021/12/18 06:06:51;;;;;;;25.88;7.57;;;7.20;99.90;;;;;;5090957;28;20067;-85
2021/12/18 06:09:30;;;;;;;21.55;6.53;;;7.30;99.90;;;;;;5085594;27;20493;-86
2021/12/18 06:12:02;;;;;;;18.98;6.43;;;6.90;99.90;;;;;;5112092;28;20055;-85
2021/12/18 06:14:29;;;;;;;22.48;6.53;;;6.70;99.90;;;;;;5112165;28;20138;-85
2021/12/18 06:17:12;;;;;;;17.20;5.30;;;7.10;99.90;;;;;;5111811;28;20039;-86
2021/12/18 06:19:50;;;;;;;15.57;5.82;;;7.40;99.90;;;;;;5111668;28;20055;-84
2021/12/18 06:22:16;;;;;;;16.10;5.35;;;7.30;99.90;;;;;;5118247;22;20056;-85
2021/12/18 06:24:41;;;;;;;14.60;4.80;;;6.40;99.90;;;;;;5095069;28;20192;-84
2021/12/18 06:27:07;;;;;;;14.00;4.72;;;6.80;99.90;;;;;;5078231;28;20402;-84
2021/12/18 06:29:50;;;;;;;19.65;5.18;;;7.40;99.90;;;;;;5095077;28;20047;-85
2021/12/18 06:32:16;;;;;;;14.50;5.22;;;7.20;99.90;;;;;;5095586;28;20048;-84
2021/12/18 06:34:42;;;;;;;22.80;5.22;;;6.90;99.90;;;;;;5071829;28;20055;-85
2021/12/18 06:37:07;;;;;;;16.90;5.05;;;6.90;99.90;;;;;;5058055;28;20495;-84
2021/12/18 06:39:33;;;;;;;17.67;5.00;;;7.40;99.90;;;;;;5092808;28;20044;-85
2021/12/18 06:42:00;;;;;;;12.25;4.40;;;6.90;99.90;;;;;;5074613;28;20040;-85
2021/12/18 06:44:28;;;;;;;19.25;5.50;;;6.90;99.90;;;;;;5092628;28;20055;-85
2021/12/18 06:46:56;;;;;;;13.45;4.50;;;6.90;99.90;;;;;;5074127;28;20044;-83
2021/12/18 06:49:22;;;;;;;14.13;4.85;;;7.30;99.90;;;;;;5029493;28;20065;-86
2021/12/18 06:51:48;;;;;;;14.85;4.82;;;7.70;99.90;;;;;;5013274;28;20508;-85
2021/12/18 06:54:16;;;;;;;12.60;4.57;;;7.00;99.90;;;;;;5013345;28;20065;-84
2021/12/18 06:56:45;;;;;;;15.95;5.40;;;7.00;99.90;;;;;;5029906;28;20087;-85
2021/12/18 06:59:11;;;;;;;23.00;5.88;;;7.10;99.90;;;;;;5013223;28;20107;-85
2021/12/18 07:01:39;;;;;;;21.55;5.68;;;7.30;99.90;;;;;;5013615;28;20049;-86
2021/12/18 07:04:16;;;;;;;25.00;6.53;;;7.20;99.90;;;;;;4996876;28;20065;-86
2021/12/18 07:06:42;;;;;;;17.63;5.63;;;7.60;99.90;;;;;;5013345;28;20407;-85
2021/12/18 07:09:08;;;;;;;16.45;5.15;;;7.50;99.90;;;;;;5014556;28;20132;-85
2021/12/18 07:11:51;;;;;;;22.23;5.65;;;7.30;99.90;;;;;;5013280;28;20079;-85
2021/12/18 07:14:20;;;;;;;17.20;5.20;;;7.90;99.90;;;;;;5013018;28;20057;-85
2021/12/18 07:16:54;;;;;;;17.48;6.05;;;7.50;99.90;;;;;;5017433;28;20052;-85
2021/12/18 07:19:29;;;;;;;14.60;4.75;;;7.80;99.90;;;;;;5052960;28;20136;-86
2021/12/18 07:21:55;;;;;;;14.90;5.07;;;6.60;99.90;;;;;;5090984;28;20052;-85
2021/12/18 07:24:35;;;;;;;19.27;6.18;;;7.50;99.90;;;;;;5092228;28;20056;-85
2021/12/18 07:27:06;;;;;;;15.25;5.57;;;7.00;99.90;;;;;;5092555;28;20150;-85
2021/12/18 07:29:33;;;;;;;19.75;6.10;;;7.20;99.90;;;;;;5092406;28;20044;-86
2021/12/18 07:34:46;;;;;;;20.33;5.35;;;7.20;99.90;;;;;;5114694;23;20067;-84
2021/12/18 07:37:12;;;;;;;16.63;5.30;;;7.20;99.90;;;;;;5093754;28;20051;-83
2021/12/18 07:39:38;;;;;;;14.18;4.88;;;7.30;99.90;;;;;;5094129;28;20122;-83
2021/12/18 07:42:12;;;;;;;13.40;4.35;;;7.70;99.90;;;;;;5093994;28;20386;-83
2021/12/18 07:44:43;;;;;;;13.95;4.30;;;7.30;99.90;;;;;;5094381;28;20048;-83
2021/12/18 07:47:12;;;;;;;10.20;3.58;;;7.90;99.90;;;;;;5094108;28;20478;-83
2021/12/18 07:49:41;;;;;;;12.50;4.03;;;7.80;99.90;;;;;;5112581;28;20123;-83
2021/12/18 07:52:22;;;;;;;17.73;4.03;;;7.20;99.90;;;;;;5112125;28;20054;-87
2021/12/18 07:54:48;;;;;;;13.60;4.47;;;7.80;99.90;;;;;;5094136;28;20085;-82
2021/12/18 07:57:13;;;;;;;13.75;4.25;;;7.80;99.90;;;;;;5094062;28;20051;-83
2021/12/18 07:59:42;;;;;;;16.42;4.45;;;7.40;99.90;;;;;;5094348;28;20488;-85
2021/12/18 08:02:07;;;;;;;11.93;3.53;;;7.40;99.90;;;;;;5094223;28;20043;-84
2021/12/18 08:04:42;;;;;;;15.35;4.40;;;7.80;99.90;;;;;;5112407;28;20043;-84
2021/12/18 08:07:20;;;;;;;13.85;3.80;;;8.00;99.90;;;;;;5112638;28;20128;-84
2021/12/18 08:09:46;;;;;;;15.13;4.20;;;7.80;99.90;;;;;;5091709;28;20097;-82
2021/12/18 08:12:14;;;;;;;18.73;4.00;;;7.70;99.90;;;;;;5057604;28;20044;-83
2021/12/18 08:14:40;;;;;;;14.70;3.75;;;7.80;99.90;;;;;;5073946;28;20059;-83
2021/12/18 08:17:11;;;;;;;13.98;4.20;;;8.40;99.90;;;;;;5082113;28;20043;-83
2021/12/18 08:19:40;;;;;;;10.13;3.60;;;8.20;99.90;;;;;;5097440;28;20485;-82
2021/12/18 08:22:21;;;;;;;15.57;4.35;;;7.80;99.90;;;;;;5080977;28;20055;-83
2021/12/18 08:24:56;;;;;;;13.25;4.00;;;7.70;99.90;;;;;;5115213;28;20039;-84
2021/12/18 08:27:21;;;;;;;11.73;3.70;;;7.70;99.90;;;;;;5077259;28;20048;-83
2021/12/18 08:29:47;;;;;;;11.75;3.63;;;8.30;99.90;;;;;;5098605;28;20042;-82
2021/12/18 08:32:13;;;;;;;12.88;3.80;;;8.00;99.90;;;;;;5084304;28;20059;-83
2021/12/18 08:34:38;;;;;;;14.10;3.92;;;7.80;99.90;;;;;;5101388;28;20118;-83
2021/12/18 08:37:05;;;;;;;15.63;4.13;;;7.60;99.90;;;;;;5081478;28;20040;-83
2021/12/18 08:39:36;;;;;;;17.08;4.13;;;8.00;99.90;;;;;;5096721;28;20560;-83
2021/12/18 08:42:17;;;;;;;10.93;3.58;;;7.90;99.90;;;;;;5097692;28;20498;-84
2021/12/18 08:44:43;;;;;;;10.88;3.75;;;7.70;99.90;;;;;;5077230;28;20487;-84
2021/12/18 08:47:16;;;;;;;12.77;3.90;;;7.40;99.90;;;;;;5104687;28;20119;-85
2021/12/18 08:50:13;;;;;;;17.75;4.07;;;7.50;99.90;;;;;;5115235;28;20044;-85
2021/12/18 08:52:39;;;;;;;13.07;3.33;;;7.70;99.90;;;;;;5115173;28;20039;-85
2021/12/18 08:55:11;;;;;;;10.60;3.90;;;8.60;99.90;;;;;;5079315;28;20138;-85
2021/12/18 08:57:37;;;;;;;11.73;3.72;;;7.60;99.90;;;;;;5115246;28;20096;-84
2021/12/18 09:00:11;;;;;;;11.60;3.60;;;7.80;99.90;;;;;;5115091;28;20452;-84
2021/12/18 09:02:40;;;;;;;13.52;3.80;;;7.80;99.90;;;;;;5096477;28;20044;-84
2021/12/18 09:05:14;;;;;;;9.70;3.45;;;7.90;99.90;;;;;;5111440;28;20126;-85
2021/12/18 09:07:40;;;;;;;11.85;3.90;;;7.80;99.90;;;;;;5096358;28;20044;-82
2021/12/18 09:10:09;;;;;;;11.07;3.35;;;8.30;99.90;;;;;;5114884;28;20047;-82
2021/12/18 09:12:35;;;;;;;15.98;4.00;;;7.90;99.90;;;;;;5080043;28;20429;-83
2021/12/18 09:15:01;;;;;;;10.65;3.70;;;7.90;99.90;;;;;;5114935;28;20134;-82
2021/12/18 09:17:27;;;;;;;11.18;3.35;;;8.00;99.90;;;;;;5114376;28;20047;-81
2021/12/18 09:19:53;;;;;;;9.10;3.42;;;8.40;99.90;;;;;;5114685;28;20047;-83
2021/12/18 09:22:19;;;;;;;11.57;3.25;;;8.00;99.90;;;;;;5095924;28;20035;-82
2021/12/18 09:24:46;;;;;;;10.65;3.00;;;8.00;99.90;;;;;;5096534;28;20051;-83
2021/12/18 09:27:15;;;;;;;13.63;3.00;;;8.10;99.90;;;;;;5113935;28;20168;-83
2021/12/18 09:29:41;;;;;;;12.57;3.03;;;8.10;99.90;;;;;;5096274;28;20047;-85
2021/12/18 09:32:07;;;;;;;10.82;3.38;;;8.10;99.90;;;;;;5096159;28;20058;-85
2021/12/18 09:34:33;;;;;;;11.48;3.30;;;8.50;99.90;;;;;;5095164;28;20134;-83
2021/12/18 09:37:00;;;;;;;10.13;3.60;;;8.10;99.90;;;;;;5114239;28;20055;-85
2021/12/18 09:39:25;;;;;;;11.15;4.60;;;8.60;99.90;;;;;;5096266;28;21180;-83
2021/12/18 09:41:57;;;;;;;11.65;3.53;;;8.50;99.90;;;;;;5113975;28;20118;-85
2021/12/18 09:44:32;;;;;;;11.18;3.92;;;8.20;99.90;;;;;;5096202;28;20486;-82
2021/12/18 09:46:59;;;;;;;15.45;4.45;;;8.60;99.90;;;;;;5095953;28;20046;-82
2021/12/18 09:49:27;;;;;;;10.27;4.80;;;8.20;99.90;;;;;;5113490;28;20071;-84
2021/12/18 09:51:56;;;;;;;17.02;4.97;;;8.60;99.90;;;;;;5113747;28;20046;-85
2021/12/18 09:54:28;;;;;;;11.73;4.55;;;8.20;99.90;;;;;;5113958;28;20554;-83
2021/12/18 09:56:54;;;;;;;13.15;4.43;;;8.20;99.90;;;;;;5074248;28;20056;-88
2021/12/18 09:59:20;;;;;;;10.10;3.58;;;8.20;99.90;;;;;;5058454;28;20486;-83
2021/12/18 10:01:46;;;;;;;11.98;3.63;;;8.20;99.90;;;;;;5058582;28;20048;-85
2021/12/18 10:04:27;;;;;;;8.05;3.72;;;8.70;99.90;;;;;;5092910;28;20043;-85
2021/12/18 10:07:25;;;;;;;14.05;4.07;;;8.80;99.90;;;;;;5086186;28;20050;-83
2021/12/18 10:09:58;;;;;;;10.48;3.50;;;8.10;99.90;;;;;;5095575;28;20589;-84
2021/12/18 10:12:39;;;;;;;12.07;3.20;;;8.80;99.90;;;;;;5113731;28;20052;-84
2021/12/18 10:15:20;;;;;;;9.02;3.22;;;8.40;99.90;;;;;;5094898;28;20043;-84
2021/12/18 10:17:46;;;;;;;12.45;3.65;;;8.50;99.90;;;;;;5113461;28;20051;-83
2021/12/18 10:20:15;;;;;;;10.35;3.58;;;8.10;99.90;;;;;;5095534;28;20126;-86
2021/12/18 10:23:04;;;;;;;12.90;4.50;;;8.20;99.90;;;;;;5095086;28;20048;-83
2021/12/18 10:25:48;;;;;;;9.95;4.50;;;8.40;99.90;;;;;;5095956;28;20051;-84
2021/12/18 10:28:18;;;;;;;8.02;4.22;;;8.20;99.90;;;;;;5113574;28;20059;-83
2021/12/18 10:30:46;;;;;;;10.93;5.00;;;8.90;99.90;;;;;;5112911;28;20127;-85
2021/12/18 10:33:12;;;;;;;16.00;5.15;;;8.20;99.90;;;;;;5113259;28;20407;-83
2021/12/18 10:35:53;;;;;;;10.48;4.30;;;8.20;99.90;;;;;;5078159;28;20052;-83
2021/12/18 10:38:38;;;;;;;9.10;4.20;;;8.20;99.90;;;;;;5113258;28;20047;-83
2021/12/18 10:41:26;;;;;;;11.63;4.35;;;8.60;99.90;;;;;;5112941;28;20490;-85
2021/12/18 10:44:02;;;;;;;13.05;4.63;;;8.20;99.90;;;;;;5112901;28;20040;-86
2021/12/18 10:46:29;;;;;;;11.57;4.22;;;8.20;99.90;;;;;;5094461;28;20083;-82
2021/12/18 10:49:00;;;;;;;11.27;3.78;;;8.20;99.90;;;;;;5113315;28;20032;-83
2021/12/18 10:51:28;;;;;;;11.52;3.90;;;8.30;99.90;;;;;;5078260;28;20375;-82
2021/12/18 10:54:09;;;;;;;12.20;4.25;;;8.60;99.90;;;;;;5112917;28;20047;-83
2021/12/18 10:56:41;;;;;;;12.82;3.80;;;8.40;99.90;;;;;;5077847;28;20054;-83
2021/12/18 10:59:31;;;;;;;11.27;5.03;;;8.30;99.90;;;;;;5112566;28;20075;-83
2021/12/18 11:02:00;;;;;;;12.55;3.67;;;8.30;99.90;;;;;;5093812;28;20043;-86
2021/12/18 11:04:31;;;;;;;14.85;4.50;;;8.30;99.90;;;;;;5113025;28;20043;-83
2021/12/18 11:07:26;;;;;;;13.38;4.82;;;8.30;99.90;;;;;;5077956;28;20079;-85
2021/12/18 11:10:21;;;;;;;12.07;4.68;;;8.30;99.90;;;;;;5077751;28;20047;-84
2021/12/18 11:15:34;;;;;;;15.93;4.70;;;8.60;99.90;;;;;;5094399;28;20058;-83
2021/12/18 11:18:00;;;;;;;13.70;4.68;;;8.40;99.90;;;;;;5077257;28;20051;-85
2021/12/18 11:20:33;;;;;;;13.50;4.13;;;8.40;99.90;;;;;;5077516;28;20040;-84
2021/12/18 11:23:08;;;;;;;11.77;3.40;;;8.40;99.90;;;;;;5094410;28;20134;-83
2021/12/18 11:25:33;;;;;;;12.82;4.10;;;8.60;99.90;;;;;;5112710;28;20059;-82
2021/12/18 11:27:59;;;;;;;11.05;4.25;;;8.40;99.90;;;;;;5112241;28;20446;-83
2021/12/18 11:30:25;;;;;;;9.05;4.10;;;8.70;99.90;;;;;;5112617;28;20122;-85
2021/12/18 11:32:54;;;;;;;11.35;3.95;;;8.50;99.90;;;;;;5112310;28;20135;-85
2021/12/18 11:35:23;;;;;;;13.57;4.85;;;8.50;99.90;;;;;;5094309;28;20100;-85
2021/12/18 11:37:55;;;;;;;11.85;4.32;;;9.00;99.90;;;;;;5094210;28;20490;-85
2021/12/18 11:40:27;;;;;;;14.90;4.57;;;8.80;99.90;;;;;;5112346;28;20577;-83
2021/12/18 11:42:53;;;;;;;14.05;4.50;;;8.60;99.90;;;;;;5112253;28;20481;-85
2021/12/18 11:45:19;;;;;;;12.35;3.63;;;8.60;99.90;;;;;;5094395;28;20055;-85
2021/12/18 11:47:56;;;;;;;14.50;4.35;;;8.60;99.90;;;;;;5112371;28;20115;-85
2021/12/18 11:50:22;;;;;;;15.02;3.97;;;8.60;99.90;;;;;;5078098;28;20074;-85
2021/12/18 11:52:59;;;;;;;15.18;4.65;;;8.60;99.90;;;;;;5098419;28;20509;-85
2021/12/18 11:55:27;;;;;;;9.23;3.50;;;8.60;99.90;;;;;;5081643;28;20066;-84
2021/12/18 11:57:58;;;;;;;14.65;4.00;;;8.80;99.90;;;;;;5116337;28;20402;-85
2021/12/18 12:00:37;;;;;;;10.85;3.55;;;8.90;99.90;;;;;;5096322;28;20043;-84
2021/12/18 12:03:05;;;;;;;10.93;3.70;;;8.70;99.90;;;;;;5116122;28;20047;-83
2021/12/18 12:05:37;;;;;;;12.00;3.42;;;8.70;99.90;;;;;;5081182;28;20048;-83
2021/12/18 12:08:39;;;;;;;15.23;5.07;;;8.70;99.90;;;;;;5097235;28;20110;-84
2021/12/18 12:11:17;;;;;;;13.32;3.80;;;8.70;99.90;;;;;;5116444;28;20081;-83
2021/12/18 12:14:16;;;;;;;15.57;3.40;;;8.70;99.90;;;;;;5116199;28;20429;-82
2021/12/18 12:16:45;;;;;;;11.38;2.60;;;8.70;99.90;;;;;;5115920;28;20043;-82
2021/12/18 12:19:10;;;;;;;12.40;3.35;;;8.70;99.90;;;;;;5115075;28;20045;-84
2021/12/18 12:21:44;;;;;;;14.13;3.05;;;9.20;99.90;;;;;;5097807;28;20562;-83
2021/12/18 12:24:11;;;;;;;10.75;3.00;;;8.70;99.90;;;;;;5097495;28;20052;-85
2021/12/18 12:26:40;;;;;;;11.38;3.00;;;9.30;99.90;;;;;;5114699;28;20067;-82
2021/12/18 12:29:07;;;;;;;10.55;3.03;;;9.10;99.90;;;;;;5080573;28;20054;-84
2021/12/18 12:31:33;;;;;;;15.48;3.40;;;9.00;99.90;;;;;;5096324;28;20445;-83
2021/12/18 12:34:33;;;;;;;14.25;3.22;;;8.90;99.90;;;;;;5104400;28;20047;-82
2021/12/18 12:37:34;;;;;;;12.98;2.90;;;8.70;99.90;;;;;;5095181;28;20047;-85
2021/12/18 12:40:12;;;;;;;16.58;2.95;;;8.70;99.90;;;;;;5087006;28;20084;-84
2021/12/18 12:42:41;;;;;;;11.68;2.92;;;8.80;99.90;;;;;;5028558;28;20393;-83
2021/12/18 12:45:13;;;;;;;10.88;2.78;;;9.00;99.90;;;;;;5001063;28;20084;-85
2021/12/18 12:47:40;;;;;;;15.48;2.95;;;8.70;99.90;;;;;;5017244;28;20054;-84
2021/12/18 12:50:11;;;;;;;15.10;2.60;;;9.00;99.90;;;;;;4998535;28;20504;-83
2021/12/18 12:52:50;;;;;;;13.00;2.72;;;9.10;99.90;;;;;;5016332;28;20058;-85
2021/12/18 12:55:19;;;;;;;11.43;2.63;;;8.70;99.90;;;;;;5015297;28;20053;-81
2021/12/18 12:57:57;;;;;;;10.27;2.53;;;8.70;99.90;;;;;;5021917;28;20543;-86
2021/12/18 13:00:26;;;;;;;8.60;2.67;;;8.70;99.90;;;;;;5017133;28;20053;-84
2021/12/18 13:03:19;;;;;;;8.60;1.80;;;8.70;99.90;;;;;;5034056;28;20053;-83
2021/12/18 13:05:59;;;;;;;13.15;2.15;;;8.70;99.90;;;;;;5029730;28;20088;-81
2021/12/18 13:08:26;;;;;;;15.45;3.08;;;8.70;99.90;;;;;;5014708;28;20049;-83
2021/12/18 13:10:54;;;;;;;10.50;2.50;;;8.60;99.90;;;;;;5014694;28;20046;-84
2021/12/18 13:13:24;;;;;;;8.63;2.35;;;8.60;99.90;;;;;;4997126;28;20128;-86
2021/12/18 13:15:51;;;;;;;9.15;2.13;;;8.70;99.90;;;;;;4996973;28;20041;-83
2021/12/18 13:18:18;;;;;;;11.90;2.50;;;8.60;99.90;;;;;;5014434;28;20515;-83
2021/12/18 13:21:14;;;;;;;9.57;2.53;;;8.60;99.90;;;;;;5018182;28;20492;-84
2021/12/18 13:23:45;;;;;;;12.40;2.33;;;8.60;99.90;;;;;;5016387;28;20049;-82
2021/12/18 13:26:16;;;;;;;9.13;2.50;;;8.50;99.90;;;;;;5016557;28;20053;-82
2021/12/18 13:28:48;;;;;;;7.03;1.77;;;8.50;99.90;;;;;;5016249;28;20037;-82
2021/12/18 13:31:14;;;;;;;7.40;1.67;;;8.50;99.90;;;;;;5034155;28;20034;-81
2021/12/18 13:33:41;;;;;;;8.70;1.67;;;8.50;99.90;;;;;;5017912;28;20400;-82
2021/12/18 13:36:06;;;;;;;7.60;1.40;;;8.90;99.90;;;;;;5015985;28;20108;-82
2021/12/18 13:38:38;;;;;;;10.40;1.92;;;8.50;99.90;;;;;;5052373;23;20385;-82
2021/12/18 13:41:09;;;;;;;13.07;2.53;;;8.50;99.90;;;;;;5053646;28;20480;-82
2021/12/18 13:43:35;;;;;;;8.25;2.40;;;8.40;99.90;;;;;;5053837;28;20051;-82
2021/12/18 13:46:06;;;;;;;8.32;2.33;;;8.40;99.90;;;;;;5053782;28;20049;-82
2021/12/18 13:48:44;;;;;;;10.45;3.00;;;8.40;99.90;;;;;;5053690;28;20081;-81
2021/12/18 13:51:13;;;;;;;11.57;2.63;;;8.40;99.90;;;;;;5052267;28;20091;-82